createdAt,value
2018-08-14T00:00:37.487Z,3.73
2018-08-14T00:03:10.395Z,4.03
2018-08-14T00:05:39.274Z,3.97
2018-08-14T00:08:08.770Z,4.33
2018-08-14T00:10:38.087Z,4.53
2018-08-14T00:13:09.721Z,4.10
2018-08-14T00:15:38.935Z,4.40
2018-08-14T00:18:08.959Z,3.93
2018-08-14T00:20:37.789Z,4.20
2018-08-14T00:23:07.710Z,3.37
2018-08-14T00:25:36.521Z,4.27
2018-08-14T00:28:07.286Z,7.07
2018-08-14T00:30:36.662Z,4.37
2018-08-14T00:33:06.918Z,4.83
2018-08-14T00:35:35.819Z,3.87
2018-08-14T00:38:05.502Z,4.40
2018-08-14T00:40:34.372Z,4.70
2018-08-14T00:43:06.879Z,4.50
2018-08-14T00:45:36.373Z,4.47
2018-08-14T00:48:06.702Z,4.43
2018-08-14T00:50:36.719Z,4.10
2018-08-14T00:53:06.058Z,4.23
2018-08-14T00:55:34.913Z,4.00
2018-08-14T00:58:03.761Z,3.30
2018-08-14T01:00:35.023Z,4.20
2018-08-14T01:03:04.861Z,3.53
2018-08-14T01:05:33.650Z,4.00
2018-08-14T01:08:02.453Z,4.30
2018-08-14T01:10:31.613Z,3.60
2018-08-14T01:13:01.809Z,3.20
2018-08-14T01:15:30.963Z,3.20
2018-08-14T01:18:00.049Z,4.30
2018-08-14T01:20:30.578Z,3.27
2018-08-14T01:22:59.966Z,3.83
2018-08-14T01:25:30.728Z,3.00
2018-08-14T01:28:00.171Z,3.47
2018-08-14T01:30:30.839Z,3.63
2018-08-14T01:33:00.649Z,4.80
2018-08-14T01:35:29.511Z,3.03
2018-08-14T01:37:58.321Z,3.20
2018-08-14T01:40:28.897Z,2.80
2018-08-14T01:42:57.766Z,3.17
2018-08-14T01:45:26.570Z,3.13
2018-08-14T01:47:55.989Z,3.00
2018-08-14T01:50:26.493Z,3.33
2018-08-14T01:52:56.697Z,3.23
2018-08-14T01:55:26.287Z,3.17
2018-08-14T01:57:55.825Z,3.87
2018-08-14T02:00:25.954Z,3.20
2018-08-14T02:02:55.132Z,3.10
2018-08-14T02:05:23.812Z,3.33
2018-08-14T02:07:52.703Z,3.17
2018-08-14T02:10:23.976Z,3.40
2018-08-14T02:12:53.314Z,3.43
2018-08-14T02:15:22.679Z,3.40
2018-08-14T02:17:51.985Z,3.53
2018-08-14T02:20:23.404Z,3.80
2018-08-14T02:22:56.010Z,3.70
2018-08-14T02:25:24.843Z,4.00
2018-08-14T02:27:53.858Z,4.53
2018-08-14T02:30:22.765Z,5.93
2018-08-14T02:32:51.579Z,4.20
2018-08-14T02:35:20.397Z,4.93
2018-08-14T02:37:50.049Z,3.83
2018-08-14T02:40:20.967Z,3.93
2018-08-14T02:42:52.078Z,4.47
2018-08-14T02:45:21.665Z,4.53
2018-08-14T02:47:50.534Z,5.10
2018-08-14T02:50:19.726Z,4.87
2018-08-14T02:52:48.545Z,5.57
2018-08-14T02:55:21.381Z,5.87
2018-08-14T02:57:50.699Z,5.70
2018-08-14T03:00:24.408Z,5.00
2018-08-14T03:02:53.307Z,5.27
2018-08-14T03:05:22.162Z,5.50
2018-08-14T03:07:51.198Z,5.93
2018-08-14T03:10:20.112Z,4.80
2018-08-14T03:12:48.918Z,6.73
2018-08-14T03:15:20.445Z,6.67
2018-08-14T03:17:54.337Z,6.83
2018-08-14T03:20:23.280Z,5.80
2018-08-14T03:22:52.680Z,6.80
2018-08-14T03:25:21.563Z,6.23
2018-08-14T03:27:50.869Z,6.33
2018-08-14T03:30:19.723Z,7.87
2018-08-14T03:32:49.929Z,6.73
2018-08-14T03:35:18.873Z,8.57
2018-08-14T03:37:48.948Z,8.30
2018-08-14T03:40:18.947Z,8.90
2018-08-14T03:42:49.606Z,8.20
2018-08-14T03:45:18.543Z,8.47
2018-08-14T03:47:47.370Z,8.43
2018-08-14T03:50:16.262Z,8.23
2018-08-14T03:52:45.514Z,8.00
2018-08-14T03:55:17.513Z,8.13
2018-08-14T03:57:46.345Z,7.67
2018-08-14T04:00:18.294Z,7.35
2018-08-14T04:02:47.135Z,7.47
2018-08-14T04:05:16.960Z,8.97
2018-08-14T04:07:46.426Z,7.77
2018-08-14T04:10:15.778Z,9.20
2018-08-14T04:12:45.399Z,11.27
2018-08-14T04:15:16.945Z,9.60
2018-08-14T04:17:45.746Z,9.17
2018-08-14T04:20:15.237Z,10.25
2018-08-14T04:22:44.074Z,9.53
2018-08-14T04:25:13.225Z,9.13
2018-08-14T04:27:42.797Z,9.23
2018-08-14T04:30:14.174Z,8.80
2018-08-14T04:32:45.011Z,8.83
2018-08-14T04:35:15.233Z,9.27
2018-08-14T04:37:44.917Z,9.33
2018-08-14T04:40:14.009Z,9.20
2018-08-14T04:42:43.549Z,9.20
2018-08-14T04:45:13.538Z,9.00
2018-08-14T04:47:42.434Z,8.53
2018-08-14T04:50:14.508Z,8.88
2018-08-14T04:52:44.267Z,9.10
2018-08-14T04:55:16.701Z,8.97
2018-08-14T04:57:45.493Z,8.30
2018-08-14T05:00:15.605Z,9.10
2018-08-14T05:02:45.129Z,10.40
2018-08-14T05:05:15.125Z,9.80
2018-08-14T05:07:44.227Z,11.37
2018-08-14T05:10:15.168Z,10.82
2018-08-14T05:12:45.079Z,11.67
2018-08-14T05:15:13.919Z,11.57
2018-08-14T05:17:43.488Z,12.37
2018-08-14T05:20:14.010Z,11.47
2018-08-14T05:22:43.298Z,13.70
2018-08-14T05:25:12.208Z,13.27
2018-08-14T05:27:41.183Z,12.70
2018-08-14T05:30:13.288Z,13.93
2018-08-14T05:32:42.190Z,14.90
2018-08-14T05:35:11.049Z,14.73
2018-08-14T05:37:40.245Z,14.17
2018-08-14T05:40:10.682Z,14.13
2018-08-14T05:42:39.871Z,13.27
2018-08-14T05:45:11.601Z,14.30
2018-08-14T05:47:40.510Z,15.00
2018-08-14T05:50:13.049Z,17.43
2018-08-14T05:52:42.743Z,14.43
2018-08-14T05:55:11.821Z,16.93
2018-08-14T05:57:41.481Z,16.40
2018-08-14T06:00:16.226Z,19.20
2018-08-14T06:02:49.042Z,14.73
2018-08-14T06:05:18.195Z,15.97
2018-08-14T06:07:47.022Z,15.37
2018-08-14T06:10:15.877Z,16.13
2018-08-14T06:12:44.662Z,14.63
2018-08-14T06:15:14.904Z,14.10
2018-08-14T06:17:44.935Z,13.30
2018-08-14T06:20:14.795Z,15.93
2018-08-14T06:22:44.558Z,12.93
2018-08-14T06:25:15.012Z,14.80
2018-08-14T06:27:44.602Z,13.73
2018-08-14T06:30:17.577Z,12.70
2018-08-14T06:32:48.008Z,12.33
2018-08-14T06:35:17.471Z,13.00
2018-08-14T06:37:47.229Z,11.97
2018-08-14T06:40:19.933Z,11.60
2018-08-14T06:42:52.883Z,12.00
2018-08-14T06:45:21.749Z,10.73
2018-08-14T06:47:51.636Z,11.40
2018-08-14T06:50:21.117Z,10.97
2018-08-14T06:52:49.951Z,10.03
2018-08-14T06:55:18.790Z,9.77
2018-08-14T06:57:51.434Z,8.87
2018-08-14T07:00:21.576Z,9.90
2018-08-14T07:02:51.423Z,11.23
2018-08-14T07:05:20.239Z,9.80
2018-08-14T07:07:49.069Z,10.30
2018-08-14T07:10:18.408Z,11.30
2018-08-14T07:12:47.052Z,10.93
2018-08-14T07:15:20.517Z,9.87
2018-08-14T07:17:49.799Z,9.73
2018-08-14T07:20:18.607Z,9.90
2018-08-14T07:22:47.261Z,10.73
2018-08-14T07:25:18.466Z,9.53
2018-08-14T07:27:47.122Z,8.97
2018-08-14T07:30:23.058Z,8.80
2018-08-14T07:32:51.980Z,10.30
2018-08-14T07:35:20.785Z,9.77
2018-08-14T07:37:49.793Z,8.93
2018-08-14T07:40:18.581Z,7.67
2018-08-14T07:42:47.393Z,10.40
2018-08-14T07:45:16.680Z,9.13
2018-08-14T07:47:45.545Z,8.97
2018-08-14T07:50:14.769Z,8.00
2018-08-14T07:52:44.989Z,7.53
2018-08-14T07:55:14.089Z,7.83
2018-08-14T07:57:43.248Z,7.70
2018-08-14T08:00:18.610Z,6.87
2018-08-14T08:02:49.113Z,6.30
2018-08-14T08:05:18.347Z,6.63
2018-08-14T08:07:47.728Z,7.73
2018-08-14T08:10:17.003Z,8.28
2018-08-14T08:12:45.803Z,8.57
2018-08-14T08:15:16.870Z,7.40
2018-08-14T08:17:46.084Z,8.17
2018-08-14T08:20:24.207Z,11.43
2018-08-14T08:22:53.034Z,7.80
2018-08-14T08:25:22.353Z,7.53
2018-08-14T08:27:52.664Z,7.27
2018-08-14T08:30:21.503Z,8.70
2018-08-14T08:32:50.290Z,6.83
2018-08-14T08:35:19.153Z,8.77
2018-08-14T08:37:47.944Z,6.93
2018-08-14T08:40:16.795Z,8.20
2018-08-14T08:42:45.606Z,6.13
2018-08-14T08:45:14.455Z,7.67
2018-08-14T08:47:43.605Z,7.87
2018-08-14T08:50:15.222Z,9.37
2018-08-14T08:52:44.682Z,9.10
2018-08-14T08:55:18.184Z,6.93
2018-08-14T08:57:47.671Z,8.33
2018-08-14T09:00:17.501Z,8.53
2018-08-14T09:02:46.306Z,13.97
2018-08-14T09:05:17.322Z,7.93
2018-08-14T09:07:46.534Z,9.67
2018-08-14T09:10:15.804Z,7.20
2018-08-14T09:12:44.608Z,6.97
2018-08-14T09:15:13.673Z,7.62
2018-08-14T09:17:43.499Z,8.47
2018-08-14T09:20:14.811Z,7.80
2018-08-14T09:22:43.684Z,7.37
2018-08-14T09:25:14.746Z,9.50
2018-08-14T09:27:45.107Z,7.80
2018-08-14T09:30:17.596Z,7.67
2018-08-14T09:32:46.412Z,8.50
2018-08-14T09:35:16.926Z,8.47
2018-08-14T09:37:45.734Z,11.60
2018-08-14T09:40:18.613Z,9.40
2018-08-14T09:42:50.429Z,9.03
2018-08-14T09:45:19.252Z,7.23
2018-08-14T09:47:48.041Z,7.67
2018-08-14T09:50:21.766Z,7.62
2018-08-14T09:52:50.603Z,8.23
2018-08-14T09:55:20.599Z,8.40
2018-08-14T09:57:51.688Z,10.60
2018-08-14T10:00:34.091Z,7.17
2018-08-14T10:03:17.440Z,8.07
2018-08-14T10:05:49.266Z,6.40
2018-08-14T10:08:20.712Z,7.70
2018-08-14T10:10:49.524Z,6.67
2018-08-14T10:13:20.096Z,6.87
2018-08-14T10:15:50.282Z,7.60
2018-08-14T10:18:24.778Z,7.33
2018-08-14T10:20:53.746Z,6.60
2018-08-14T10:23:22.797Z,6.00
2018-08-14T10:25:51.445Z,6.57
2018-08-14T10:28:23.240Z,6.73
2018-08-14T10:30:52.193Z,7.77
2018-08-14T10:33:21.054Z,7.53
2018-08-14T10:35:49.878Z,8.57
2018-08-14T10:38:18.693Z,6.87
2018-08-14T10:40:47.546Z,6.60
2018-08-14T10:43:16.369Z,6.93
2018-08-14T10:45:45.175Z,5.80
2018-08-14T10:48:14.001Z,8.70
2018-08-14T10:50:43.074Z,13.43
2018-08-14T10:53:11.915Z,8.07
2018-08-14T10:55:40.723Z,7.50
2018-08-14T10:58:09.718Z,10.63
2018-08-14T11:00:39.371Z,6.40
2018-08-14T11:03:08.185Z,6.10
2018-08-14T11:05:37.517Z,5.53
2018-08-14T11:08:06.350Z,6.53
2018-08-14T11:10:40.928Z,6.87
2018-08-14T11:13:09.729Z,9.10
2018-08-14T11:15:39.350Z,6.30
2018-08-14T11:18:08.209Z,6.87
2018-08-14T11:20:37.002Z,5.67
2018-08-14T11:23:05.814Z,5.50
2018-08-14T11:25:35.002Z,5.47
2018-08-14T11:28:03.834Z,5.67
2018-08-14T11:30:32.650Z,5.37
2018-08-14T11:33:01.744Z,5.57
2018-08-14T11:35:35.907Z,5.40
2018-08-14T11:38:04.971Z,5.13
2018-08-14T11:40:33.795Z,9.43
2018-08-14T11:43:02.626Z,11.90
2018-08-14T11:45:31.486Z,5.92
2018-08-14T11:48:00.721Z,5.72
2018-08-14T11:50:29.529Z,5.53
2018-08-14T11:52:58.810Z,4.95
2018-08-14T11:55:27.882Z,5.53
2018-08-14T11:57:56.703Z,5.87
2018-08-14T12:00:26.409Z,5.23
2018-08-14T12:02:56.894Z,4.58
2018-08-14T12:05:25.849Z,4.73
2018-08-14T12:07:54.645Z,4.95
2018-08-14T12:10:23.605Z,7.03
2018-08-14T12:12:52.550Z,5.90
2018-08-14T12:15:22.305Z,6.53
2018-08-14T12:17:52.202Z,4.30
2018-08-14T12:20:23.187Z,4.53
2018-08-14T12:22:52.012Z,5.53
2018-08-14T12:25:21.865Z,8.25
2018-08-14T12:27:50.729Z,5.37
2018-08-14T12:30:21.497Z,6.83
2018-08-14T12:32:50.597Z,6.53
2018-08-14T12:35:19.799Z,5.07
2018-08-14T12:37:48.644Z,7.70
2018-08-14T12:40:18.020Z,5.27
2018-08-14T12:42:46.849Z,5.72
2018-08-14T12:45:22.266Z,5.43
2018-08-14T12:47:51.853Z,5.47
2018-08-14T12:50:21.331Z,5.85
2018-08-14T12:52:50.336Z,8.40
2018-08-14T12:55:19.926Z,6.03
2018-08-14T12:57:48.948Z,8.75
2018-08-14T13:00:25.726Z,5.47
2018-08-14T13:02:55.093Z,6.15
2018-08-14T13:05:25.155Z,6.10
2018-08-14T13:07:55.046Z,6.57
2018-08-14T13:10:23.852Z,7.07
2018-08-14T13:12:52.667Z,6.10
2018-08-14T13:15:22.023Z,6.67
2018-08-14T13:18:12.644Z,7.47
2018-08-14T13:20:41.619Z,6.70
2018-08-14T13:23:12.838Z,5.58
2018-08-14T13:25:41.780Z,5.20
2018-08-14T13:28:11.051Z,5.83
2018-08-14T13:30:40.475Z,6.17
2018-08-14T13:33:09.326Z,7.10
2018-08-14T13:35:38.440Z,6.20
2018-08-14T13:38:07.231Z,5.12
2018-08-14T13:40:36.026Z,5.58
2018-08-14T13:43:05.293Z,6.15
2018-08-14T13:45:34.114Z,5.97
2018-08-14T13:48:03.042Z,5.25
2018-08-14T13:50:32.041Z,7.00
2018-08-14T13:53:00.866Z,6.93
2018-08-14T13:55:44.820Z,5.67
2018-08-14T13:58:13.636Z,7.45
2018-08-14T14:00:42.454Z,6.97
2018-08-14T14:03:11.519Z,5.23
2018-08-14T14:05:40.966Z,8.15
2018-08-14T14:08:09.817Z,5.50
2018-08-14T14:10:38.680Z,5.03
2018-08-14T14:13:08.108Z,5.10
2018-08-14T14:15:37.047Z,4.83
2018-08-14T14:18:06.985Z,6.40
2018-08-14T14:20:35.809Z,5.70
2018-08-14T14:23:04.650Z,6.45
2018-08-14T14:25:33.535Z,5.53
2018-08-14T14:28:02.354Z,6.83
2018-08-14T14:30:31.160Z,5.15
2018-08-14T14:32:59.818Z,4.95
2018-08-14T14:35:28.638Z,5.53
2018-08-14T14:37:57.459Z,4.93
2018-08-14T14:40:28.822Z,4.63
2018-08-14T14:43:00.746Z,7.37
2018-08-14T14:45:29.760Z,5.03
2018-08-14T14:47:58.878Z,3.67
2018-08-14T14:50:27.756Z,3.58
2018-08-14T14:52:56.690Z,4.03
2018-08-14T14:55:25.485Z,3.63
2018-08-14T14:57:54.430Z,3.90
2018-08-14T15:00:24.908Z,5.17
2018-08-14T15:02:55.458Z,7.85
2018-08-14T15:05:24.746Z,3.83
2018-08-14T15:07:53.881Z,4.10
2018-08-14T15:10:23.287Z,4.10
2018-08-14T15:12:52.218Z,5.85
2018-08-14T15:15:21.110Z,3.00
2018-08-14T15:17:50.780Z,2.80
2018-08-14T15:20:26.897Z,2.93
2018-08-14T15:22:57.706Z,4.15
2018-08-14T15:25:27.604Z,2.67
2018-08-14T15:29:05.902Z,3.85
2018-08-14T15:31:36.503Z,3.42
2018-08-14T15:34:07.318Z,4.80
2018-08-14T15:36:36.144Z,1.90
2018-08-14T15:39:11.425Z,7.62
2018-08-14T15:41:40.770Z,2.40
2018-08-14T15:44:10.398Z,2.27
2018-08-14T15:46:39.274Z,2.42
2018-08-14T15:49:09.055Z,2.47
2018-08-14T15:51:37.849Z,2.70
2018-08-14T15:54:08.190Z,5.93
2018-08-14T15:56:37.183Z,2.93
2018-08-14T15:59:06.078Z,2.43
2018-08-14T16:01:35.786Z,2.70
2018-08-14T16:04:05.367Z,2.65
2018-08-14T16:06:34.214Z,2.87
2018-08-14T16:09:05.418Z,4.43
2018-08-14T16:11:34.217Z,3.30
2018-08-14T16:14:03.017Z,4.87
2018-08-14T16:16:31.854Z,9.30
2018-08-14T16:19:00.994Z,5.42
2018-08-14T16:21:29.798Z,8.00
2018-08-14T16:23:59.044Z,2.87
2018-08-14T16:26:27.841Z,3.90
2018-08-14T16:28:56.761Z,2.40
2018-08-14T16:31:25.639Z,3.00
2018-08-14T16:33:54.618Z,2.70
2018-08-14T16:36:23.427Z,2.85
2018-08-14T16:38:52.279Z,2.93
2018-08-14T16:41:21.660Z,4.70
2018-08-14T16:43:50.464Z,2.87
2018-08-14T16:46:19.701Z,4.33
2018-08-14T16:48:48.497Z,2.40
2018-08-14T16:51:18.349Z,3.47
2018-08-14T16:53:48.449Z,3.90
2018-08-14T16:56:17.293Z,3.30
2018-08-14T16:58:46.521Z,3.43
2018-08-14T17:01:15.458Z,3.40
2018-08-14T17:03:44.278Z,3.30
2018-08-14T17:06:13.086Z,2.73
2018-08-14T17:08:42.583Z,3.03
2018-08-14T17:11:11.686Z,4.13
2018-08-14T17:13:40.463Z,3.47
2018-08-14T17:16:09.266Z,3.67
2018-08-14T17:18:38.164Z,3.10
2018-08-14T17:21:05.651Z,3.13
2018-08-14T17:23:34.515Z,3.90
2018-08-14T17:26:03.332Z,3.60
2018-08-14T17:28:31.991Z,3.10
2018-08-14T17:31:01.093Z,3.30
2018-08-14T17:33:29.877Z,2.40
2018-08-14T17:35:58.538Z,2.70
2018-08-14T17:38:27.482Z,4.27
2018-08-14T17:40:56.097Z,3.00
2018-08-14T17:43:24.913Z,3.03
2018-08-14T17:45:53.740Z,2.77
2018-08-14T17:48:22.522Z,3.40
2018-08-14T17:50:51.356Z,5.03
2018-08-14T17:53:20.568Z,4.43
2018-08-14T17:55:49.470Z,3.77
2018-08-14T17:58:18.301Z,2.70
2018-08-14T18:00:47.057Z,3.30
2018-08-14T18:03:15.938Z,3.17
2018-08-14T18:05:44.771Z,3.40
2018-08-14T18:08:13.606Z,2.40
2018-08-14T18:10:42.285Z,3.20
2018-08-14T18:13:11.689Z,2.33
2018-08-14T18:15:40.883Z,2.97
2018-08-14T18:18:09.701Z,2.90
2018-08-14T18:20:38.500Z,2.77
2018-08-14T18:23:07.632Z,2.43
2018-08-14T18:25:37.902Z,6.47
2018-08-14T18:28:06.749Z,2.13
2018-08-14T18:30:35.566Z,3.33
2018-08-14T18:33:04.379Z,3.10
2018-08-14T18:35:33.166Z,2.83
2018-08-14T18:38:02.965Z,3.30
2018-08-14T18:40:31.750Z,1.73
2018-08-14T18:43:00.704Z,2.40
2018-08-14T18:45:29.519Z,1.77
2018-08-14T18:47:59.387Z,3.30
2018-08-14T18:50:28.169Z,2.57
2018-08-14T18:52:56.946Z,1.90
2018-08-14T18:55:26.245Z,1.97
2018-08-14T18:57:55.624Z,2.33
2018-08-14T19:00:26.053Z,2.30
2018-08-14T19:02:56.373Z,1.77
2018-08-14T19:05:25.260Z,1.87
2018-08-14T19:07:54.067Z,1.40
2018-08-14T19:10:26.117Z,3.97
2018-08-14T19:12:55.497Z,1.70
2018-08-14T19:15:29.820Z,2.13
2018-08-14T19:17:59.765Z,1.70
2018-08-14T19:20:28.561Z,1.57
2018-08-14T19:22:57.373Z,1.50
2018-08-14T19:25:26.579Z,1.20
2018-08-14T19:27:55.392Z,1.90
2018-08-14T19:30:24.208Z,2.67
2018-08-14T19:32:53.071Z,1.43
2018-08-14T19:35:21.889Z,1.03
2018-08-14T19:37:50.692Z,1.90
2018-08-14T19:40:22.973Z,2.42
2018-08-14T19:42:52.038Z,3.73
2018-08-14T19:45:20.911Z,3.00
2018-08-14T19:47:49.747Z,2.57
2018-08-14T19:50:23.343Z,1.80
2018-08-14T19:52:52.158Z,3.83
2018-08-14T19:55:21.862Z,2.40
2018-08-14T19:57:51.161Z,2.00
2018-08-14T20:00:23.527Z,2.10
2018-08-14T20:02:53.731Z,2.53
2018-08-14T20:05:22.675Z,2.43
2018-08-14T20:07:54.549Z,2.20
2018-08-14T20:10:23.953Z,2.20
2018-08-14T20:12:54.051Z,2.70
2018-08-14T20:15:29.551Z,2.13
2018-08-14T20:17:58.817Z,2.83
2018-08-14T20:20:27.635Z,2.80
2018-08-14T20:22:56.441Z,2.83
2018-08-14T20:25:25.302Z,6.20
2018-08-14T20:27:54.119Z,2.83
2018-08-14T20:30:23.384Z,2.07
2018-08-14T20:32:52.168Z,2.03
2018-08-14T20:35:20.976Z,3.33
2018-08-14T20:37:50.128Z,3.47
2018-08-14T20:40:20.919Z,2.17
2018-08-14T20:42:50.803Z,2.07
2018-08-14T20:45:19.649Z,2.37
2018-08-14T20:47:48.493Z,2.27
2018-08-14T20:50:18.372Z,2.07
2018-08-14T20:52:48.288Z,2.43
2018-08-14T20:55:20.343Z,2.83
2018-08-14T20:57:49.521Z,5.33
2018-08-14T21:00:23.940Z,5.47
2018-08-14T21:02:54.057Z,2.60
2018-08-14T21:05:24.079Z,2.90
2018-08-14T21:07:53.582Z,3.57
2018-08-14T21:10:23.130Z,3.00
2018-08-14T21:12:51.927Z,2.43
2018-08-14T21:15:26.285Z,2.57
2018-08-14T21:17:55.113Z,2.87
2018-08-14T21:20:30.669Z,2.57
2018-08-14T21:22:59.495Z,2.00
2018-08-14T21:25:28.281Z,2.10
2018-08-14T21:27:57.158Z,8.47
2018-08-14T21:30:25.950Z,2.27
2018-08-14T21:32:54.758Z,3.43
2018-08-14T21:35:23.671Z,3.60
2018-08-14T21:37:52.486Z,2.40
2018-08-14T21:40:21.268Z,2.47
2018-08-14T21:42:50.834Z,4.60
2018-08-14T21:45:20.983Z,2.87
2018-08-14T21:47:49.812Z,3.67
2018-08-14T21:50:25.190Z,3.77
2018-08-14T21:52:53.987Z,2.53
2018-08-14T21:55:22.773Z,2.73
2018-08-14T21:57:51.607Z,3.70
2018-08-14T22:00:28.806Z,2.53
2018-08-14T22:02:57.638Z,3.33
2018-08-14T22:05:26.297Z,3.20
2018-08-14T22:07:55.099Z,1.63
2018-08-14T22:10:24.532Z,6.97
2018-08-14T22:12:53.160Z,2.47
2018-08-14T22:15:22.069Z,7.10
2018-08-14T22:17:51.612Z,3.37
2018-08-14T22:20:20.416Z,1.60
2018-08-14T22:22:50.418Z,4.83
2018-08-14T22:25:19.266Z,1.80
2018-08-14T22:27:48.079Z,4.27
2018-08-14T22:30:26.990Z,2.47
2018-08-14T22:32:56.710Z,2.83
2018-08-14T22:35:25.609Z,2.43
2018-08-14T22:37:54.402Z,3.87
2018-08-14T22:40:23.270Z,3.37
2018-08-14T22:42:52.101Z,2.80
2018-08-14T22:45:20.886Z,3.45
2018-08-14T22:47:49.695Z,5.20
2018-08-14T22:50:18.503Z,6.13
2018-08-14T22:52:48.003Z,3.43
2018-08-14T22:55:16.810Z,4.40
2018-08-14T22:57:45.439Z,2.60
2018-08-14T23:00:18.933Z,6.50
2018-08-14T23:02:47.704Z,8.83
2018-08-14T23:05:16.499Z,2.80
2018-08-14T23:07:45.295Z,2.07
2018-08-14T23:10:14.693Z,4.93
2018-08-14T23:12:43.757Z,3.10
2018-08-14T23:15:13.987Z,4.13
2018-08-14T23:17:42.605Z,5.17
2018-08-14T23:20:14.060Z,2.17
2018-08-14T23:22:43.867Z,3.93
2018-08-14T23:25:13.675Z,3.90
2018-08-14T23:27:42.473Z,3.83
2018-08-14T23:30:14.055Z,4.33
2018-08-14T23:32:42.768Z,3.27
2018-08-14T23:35:11.570Z,3.73
2018-08-14T23:37:41.193Z,3.10
2018-08-14T23:40:11.612Z,2.47
2018-08-14T23:42:40.430Z,5.20
2018-08-14T23:45:10.236Z,2.63
2018-08-14T23:47:39.080Z,4.70
2018-08-14T23:50:11.403Z,2.72
2018-08-14T23:52:40.791Z,3.13
2018-08-14T23:55:11.614Z,2.67
2018-08-14T23:57:40.819Z,2.90
